sensor_id;sensor_type;location;lat;lon;timestamp;pressure;altitude;pressure_sealevel;temperature;humidity
32081;BME280;18593;51.426;7.030;2023-12-04T00:01:31;100390.69;;;2.18;67.72
32081;BME280;18593;51.426;7.030;2023-12-04T00:03:58;100383.84;;;2.25;68.03
32081;BME280;18593;51.426;7.030;2023-12-04T00:06:26;100387.97;;;2.36;68.31
32081;BME280;18593;51.426;7.030;2023-12-04T00:08:55;100383.78;;;2.17;67.13
32081;BME280;18593;51.426;7.030;2023-12-04T00:11:22;100377.41;;;2.27;67.97
32081;BME280;18593;51.426;7.030;2023-12-04T00:13:50;100383.97;;;2.23;67.71
32081;BME280;18593;51.426;7.030;2023-12-04T00:16:17;100378.56;;;2.33;68.08
32081;BME280;18593;51.426;7.030;2023-12-04T00:18:45;100373.66;;;2.38;68.07
32081;BME280;18593;51.426;7.030;2023-12-04T00:21:13;100380.56;;;2.31;67.30
32081;BME280;18593;51.426;7.030;2023-12-04T00:23:40;100371.38;;;2.35;67.42
32081;BME280;18593;51.426;7.030;2023-12-04T00:26:11;100361.66;;;2.36;67.44
32081;BME280;18593;51.426;7.030;2023-12-04T00:28:39;100363.63;;;2.42;67.41
32081;BME280;18593;51.426;7.030;2023-12-04T00:31:07;100362.78;;;2.25;66.90
32081;BME280;18593;51.426;7.030;2023-12-04T00:33:36;100362.47;;;2.36;68.27
32081;BME280;18593;51.426;7.030;2023-12-04T00:36:05;100371.38;;;2.43;67.41
32081;BME280;18593;51.426;7.030;2023-12-04T00:38:33;100354.91;;;2.33;66.65
32081;BME280;18593;51.426;7.030;2023-12-04T00:41:00;100355.19;;;2.22;66.32
32081;BME280;18593;51.426;7.030;2023-12-04T00:43:29;100354.56;;;2.28;66.93
32081;BME280;18593;51.426;7.030;2023-12-04T00:45:57;100355.22;;;2.30;66.73
32081;BME280;18593;51.426;7.030;2023-12-04T00:48:24;100346.00;;;2.34;66.92
32081;BME280;18593;51.426;7.030;2023-12-04T00:50:54;100342.06;;;2.38;67.31
32081;BME280;18593;51.426;7.030;2023-12-04T00:53:22;100343.53;;;2.24;66.80
32081;BME280;18593;51.426;7.030;2023-12-04T00:55:50;100333.91;;;1.99;66.02
32081;BME280;18593;51.426;7.030;2023-12-04T00:58:18;100330.28;;;2.00;66.57
32081;BME280;18593;51.426;7.030;2023-12-04T01:00:47;100330.84;;;2.12;66.90
32081;BME280;18593;51.426;7.030;2023-12-04T01:03:17;100319.66;;;2.18;66.66
32081;BME280;18593;51.426;7.030;2023-12-04T01:05:45;100317.06;;;2.26;67.06
32081;BME280;18593;51.426;7.030;2023-12-04T01:08:12;100311.47;;;2.29;65.87
32081;BME280;18593;51.426;7.030;2023-12-04T01:10:40;100327.91;;;2.23;66.04
32081;BME280;18593;51.426;7.030;2023-12-04T01:13:08;100319.22;;;2.30;66.44
32081;BME280;18593;51.426;7.030;2023-12-04T01:15:36;100313.78;;;2.32;66.36
32081;BME280;18593;51.426;7.030;2023-12-04T01:18:06;100312.50;;;2.44;66.61
32081;BME280;18593;51.426;7.030;2023-12-04T01:20:33;100310.69;;;2.45;65.51
32081;BME280;18593;51.426;7.030;2023-12-04T01:23:02;100299.66;;;2.41;65.66
32081;BME280;18593;51.426;7.030;2023-12-04T01:25:29;100307.72;;;2.48;65.86
32081;BME280;18593;51.426;7.030;2023-12-04T01:27:57;100293.25;;;2.52;65.80
32081;BME280;18593;51.426;7.030;2023-12-04T01:30:24;100289.47;;;2.46;65.45
32081;BME280;18593;51.426;7.030;2023-12-04T01:32:52;100289.16;;;2.49;66.44
32081;BME280;18593;51.426;7.030;2023-12-04T01:35:20;100294.75;;;2.54;66.25
32081;BME280;18593;51.426;7.030;2023-12-04T01:37:48;100289.16;;;2.49;64.89
32081;BME280;18593;51.426;7.030;2023-12-04T01:40:16;100287.16;;;2.51;65.57
32081;BME280;18593;51.426;7.030;2023-12-04T01:42:43;100288.66;;;2.46;64.77
32081;BME280;18593;51.426;7.030;2023-12-04T01:45:11;100282.06;;;2.50;65.24
32081;BME280;18593;51.426;7.030;2023-12-04T01:47:38;100270.34;;;2.28;64.56
32081;BME280;18593;51.426;7.030;2023-12-04T01:50:08;100272.34;;;2.34;64.86
32081;BME280;18593;51.426;7.030;2023-12-04T01:52:37;100275.16;;;2.41;65.14
32081;BME280;18593;51.426;7.030;2023-12-04T01:55:08;100277.78;;;2.49;65.14
32081;BME280;18593;51.426;7.030;2023-12-04T01:57:37;100267.59;;;2.46;64.55
32081;BME280;18593;51.426;7.030;2023-12-04T02:00:06;100266.28;;;2.50;64.82
32081;BME280;18593;51.426;7.030;2023-12-04T02:02:37;100280.56;;;2.31;63.92
32081;BME280;18593;51.426;7.030;2023-12-04T02:05:07;100263.63;;;2.42;64.98
32081;BME280;18593;51.426;7.030;2023-12-04T02:07:36;100263.63;;;2.33;63.78
32081;BME280;18593;51.426;7.030;2023-12-04T02:10:05;100274.66;;;2.37;64.74
32081;BME280;18593;51.426;7.030;2023-12-04T02:12:33;100263.16;;;2.46;65.01
32081;BME280;18593;51.426;7.030;2023-12-04T02:15:01;100265.13;;;2.52;64.83
32081;BME280;18593;51.426;7.030;2023-12-04T02:17:29;100257.22;;;2.52;64.57
32081;BME280;18593;51.426;7.030;2023-12-04T02:19:57;100270.72;;;2.57;64.05
32081;BME280;18593;51.426;7.030;2023-12-04T02:22:25;100263.50;;;2.60;64.49
32081;BME280;18593;51.426;7.030;2023-12-04T02:24:53;100263.63;;;2.58;63.85
32081;BME280;18593;51.426;7.030;2023-12-04T02:27:28;100258.84;;;2.53;64.05
32081;BME280;18593;51.426;7.030;2023-12-04T02:29:59;100255.56;;;2.43;62.86
32081;BME280;18593;51.426;7.030;2023-12-04T02:32:31;100248.34;;;2.45;63.64
32081;BME280;18593;51.426;7.030;2023-12-04T02:35:03;100250.47;;;2.42;63.83
32081;BME280;18593;51.426;7.030;2023-12-04T02:37:32;100238.81;;;2.44;63.21
32081;BME280;18593;51.426;7.030;2023-12-04T02:40:03;100233.88;;;2.49;63.18
32081;BME280;18593;51.426;7.030;2023-12-04T02:42:31;100242.25;;;2.45;62.48
32081;BME280;18593;51.426;7.030;2023-12-04T02:44:58;100240.78;;;2.42;62.51
32081;BME280;18593;51.426;7.030;2023-12-04T02:47:26;100235.53;;;2.50;63.28
32081;BME280;18593;51.426;7.030;2023-12-04T02:49:54;100232.22;;;2.56;63.35
32081;BME280;18593;51.426;7.030;2023-12-04T02:52:21;100224.31;;;2.56;62.44
32081;BME280;18593;51.426;7.030;2023-12-04T02:54:49;100222.50;;;2.57;62.34
32081;BME280;18593;51.426;7.030;2023-12-04T02:57:18;100218.41;;;2.54;61.07
32081;BME280;18593;51.426;7.030;2023-12-04T02:59:46;100220.69;;;2.57;62.00
32081;BME280;18593;51.426;7.030;2023-12-04T03:02:13;100225.81;;;2.51;61.25
32081;BME280;18593;51.426;7.030;2023-12-04T03:04:42;100211.00;;;2.50;61.88
32081;BME280;18593;51.426;7.030;2023-12-04T03:07:09;100207.88;;;2.54;61.96
32081;BME280;18593;51.426;7.030;2023-12-04T03:09:37;100204.25;;;2.55;61.36
32081;BME280;18593;51.426;7.030;2023-12-04T03:12:06;100201.94;;;2.61;61.39
32081;BME280;18593;51.426;7.030;2023-12-04T03:14:35;100200.94;;;2.53;60.19
32081;BME280;18593;51.426;7.030;2023-12-04T03:17:03;100202.28;;;2.57;61.06
32081;BME280;18593;51.426;7.030;2023-12-04T03:19:30;100194.88;;;2.53;60.33
32081;BME280;18593;51.426;7.030;2023-12-04T03:21:59;100190.09;;;2.56;60.28
32081;BME280;18593;51.426;7.030;2023-12-04T03:24:27;100195.88;;;2.60;60.59
32081;BME280;18593;51.426;7.030;2023-12-04T03:26:54;100185.97;;;2.62;60.02
32081;BME280;18593;51.426;7.030;2023-12-04T03:29:22;100191.75;;;2.66;60.48
32081;BME280;18593;51.426;7.030;2023-12-04T03:31:51;100184.16;;;2.71;61.11
32081;BME280;18593;51.426;7.030;2023-12-04T03:34:19;100180.88;;;2.69;60.00
32081;BME280;18593;51.426;7.030;2023-12-04T03:36:46;100178.56;;;2.66;58.88
32081;BME280;18593;51.426;7.030;2023-12-04T03:39:14;100176.94;;;2.65;59.83
32081;BME280;18593;51.426;7.030;2023-12-04T03:41:41;100168.03;;;2.66;59.74
32081;BME280;18593;51.426;7.030;2023-12-04T03:44:09;100165.75;;;2.63;59.63
32081;BME280;18593;51.426;7.030;2023-12-04T03:46:36;100169.88;;;2.57;58.04
32081;BME280;18593;51.426;7.030;2023-12-04T03:49:06;100174.63;;;2.62;59.36
32081;BME280;18593;51.426;7.030;2023-12-04T03:51:34;100172.50;;;2.65;58.83
32081;BME280;18593;51.426;7.030;2023-12-04T03:54:01;100172.63;;;2.72;59.02
32081;BME280;18593;51.426;7.030;2023-12-04T03:56:29;100164.59;;;2.73;58.59
32081;BME280;18593;51.426;7.030;2023-12-04T03:58:56;100166.41;;;2.65;59.04
32081;BME280;18593;51.426;7.030;2023-12-04T04:01:24;100162.78;;;2.74;59.06
32081;BME280;18593;51.426;7.030;2023-12-04T04:03:51;100162.13;;;2.64;56.95
32081;BME280;18593;51.426;7.030;2023-12-04T04:06:20;100166.56;;;2.63;57.72
32081;BME280;18593;51.426;7.030;2023-12-04T04:08:49;100156.19;;;2.62;56.79
32081;BME280;18593;51.426;7.030;2023-12-04T04:11:18;100150.56;;;2.73;58.34
32081;BME280;18593;51.426;7.030;2023-12-04T04:13:45;100147.63;;;2.76;58.28
32081;BME280;18593;51.426;7.030;2023-12-04T04:16:14;100145.97;;;2.75;56.59
32081;BME280;18593;51.426;7.030;2023-12-04T04:18:43;100139.91;;;2.66;57.04
32081;BME280;18593;51.426;7.030;2023-12-04T04:21:10;100139.41;;;2.71;58.22
32081;BME280;18593;51.426;7.030;2023-12-04T04:23:39;100134.00;;;2.64;56.37
32081;BME280;18593;51.426;7.030;2023-12-04T04:26:07;100141.22;;;2.70;58.05
32081;BME280;18593;51.426;7.030;2023-12-04T04:28:35;100131.50;;;2.71;54.87
32081;BME280;18593;51.426;7.030;2023-12-04T04:31:03;100127.91;;;2.64;55.21
32081;BME280;18593;51.426;7.030;2023-12-04T04:33:33;100137.78;;;2.70;56.51
32081;BME280;18593;51.426;7.030;2023-12-04T04:36:00;100135.78;;;2.72;57.19
32081;BME280;18593;51.426;7.030;2023-12-04T04:38:28;100127.88;;;2.80;57.45
32081;BME280;18593;51.426;7.030;2023-12-04T04:40:57;100125.88;;;2.82;56.23
32081;BME280;18593;51.426;7.030;2023-12-04T04:43:24;100117.66;;;2.85;57.48
32081;BME280;18593;51.426;7.030;2023-12-04T04:45:52;100123.09;;;2.83;55.80
32081;BME280;18593;51.426;7.030;2023-12-04T04:48:19;100123.56;;;2.87;56.25
32081;BME280;18593;51.426;7.030;2023-12-04T04:50:47;100113.50;;;2.91;56.57
32081;BME280;18593;51.426;7.030;2023-12-04T04:53:15;100109.72;;;2.93;56.20
32081;BME280;18593;51.426;7.030;2023-12-04T04:55:42;100115.31;;;2.90;56.06
32081;BME280;18593;51.426;7.030;2023-12-04T04:58:11;100108.72;;;2.94;57.13
32081;BME280;18593;51.426;7.030;2023-12-04T05:00:39;100111.66;;;2.99;57.87
32081;BME280;18593;51.426;7.030;2023-12-04T05:03:06;100108.69;;;3.02;57.54
32081;BME280;18593;51.426;7.030;2023-12-04T05:05:34;100106.03;;;3.02;57.71
32081;BME280;18593;51.426;7.030;2023-12-04T05:08:01;100106.03;;;3.02;56.92
32081;BME280;18593;51.426;7.030;2023-12-04T05:10:32;100105.06;;;3.03;56.77
32081;BME280;18593;51.426;7.030;2023-12-04T05:12:59;100106.59;;;2.98;55.68
32081;BME280;18593;51.426;7.030;2023-12-04T05:15:29;100101.47;;;2.96;56.12
32081;BME280;18593;51.426;7.030;2023-12-04T05:17:56;100103.28;;;2.96;55.29
32081;BME280;18593;51.426;7.030;2023-12-04T05:20:24;100094.44;;;2.89;54.73
32081;BME280;18593;51.426;7.030;2023-12-04T05:22:52;100095.25;;;2.89;55.54
32081;BME280;18593;51.426;7.030;2023-12-04T05:25:19;100110.88;;;2.91;56.12
32081;BME280;18593;51.426;7.030;2023-12-04T05:27:50;100105.28;;;2.94;56.33
32081;BME280;18593;51.426;7.030;2023-12-04T05:30:18;100104.16;;;2.88;55.07
32081;BME280;18593;51.426;7.030;2023-12-04T05:32:48;100095.88;;;2.91;55.94
32081;BME280;18593;51.426;7.030;2023-12-04T05:35:15;100085.34;;;2.91;55.07
32081;BME280;18593;51.426;7.030;2023-12-04T05:37:44;100083.53;;;2.92;56.09
32081;BME280;18593;51.426;7.030;2023-12-04T05:40:13;100085.84;;;2.95;56.54
32081;BME280;18593;51.426;7.030;2023-12-04T05:42:40;100089.28;;;2.95;56.10
32081;BME280;18593;51.426;7.030;2023-12-04T05:45:09;100084.03;;;2.95;56.68
32081;BME280;18593;51.426;7.030;2023-12-04T05:47:39;100081.56;;;2.94;55.59
32081;BME280;18593;51.426;7.030;2023-12-04T05:50:09;100080.75;;;2.93;55.21
32081;BME280;18593;51.426;7.030;2023-12-04T05:52:37;100072.53;;;2.88;55.61
32081;BME280;18593;51.426;7.030;2023-12-04T05:55:06;100086.66;;;2.95;56.74
32081;BME280;18593;51.426;7.030;2023-12-04T05:57:33;100085.66;;;2.96;57.04
32081;BME280;18593;51.426;7.030;2023-12-04T06:00:01;100093.56;;;2.96;56.19
32081;BME280;18593;51.426;7.030;2023-12-04T06:02:30;100089.28;;;2.95;55.82
32081;BME280;18593;51.426;7.030;2023-12-04T06:04:58;100084.19;;;2.94;56.66
32081;BME280;18593;51.426;7.030;2023-12-04T06:07:27;100085.16;;;2.93;55.69
32081;BME280;18593;51.426;7.030;2023-12-04T06:09:55;100077.94;;;2.95;56.32
32081;BME280;18593;51.426;7.030;2023-12-04T06:12:23;100086.97;;;3.00;56.91
32081;BME280;18593;51.426;7.030;2023-12-04T06:14:51;100085.97;;;3.01;56.49
32081;BME280;18593;51.426;7.030;2023-12-04T06:17:19;100085.97;;;3.01;55.83
32081;BME280;18593;51.426;7.030;2023-12-04T06:19:47;100079.88;;;3.01;56.08
32081;BME280;18593;51.426;7.030;2023-12-04T06:22:16;100080.59;;;2.87;54.05
32081;BME280;18593;51.426;7.030;2023-12-04T06:24:47;100078.63;;;2.89;55.67
32081;BME280;18593;51.426;7.030;2023-12-04T06:27:19;100072.88;;;2.85;54.18
32081;BME280;18593;51.426;7.030;2023-12-04T06:29:48;100051.00;;;2.76;54.61
32081;BME280;18593;51.426;7.030;2023-12-04T06:32:17;100040.66;;;2.75;54.73
32081;BME280;18593;51.426;7.030;2023-12-04T06:34:47;100041.97;;;2.79;54.48
32081;BME280;18593;51.426;7.030;2023-12-04T06:37:15;100042.91;;;2.86;55.39
32081;BME280;18593;51.426;7.030;2023-12-04T06:39:46;100037.34;;;2.81;53.26
32081;BME280;18593;51.426;7.030;2023-12-04T06:42:17;100039.47;;;2.77;54.69
32081;BME280;18593;51.426;7.030;2023-12-04T06:44:46;100041.47;;;2.83;55.38
32081;BME280;18593;51.426;7.030;2023-12-04T06:47:21;100033.38;;;2.85;55.65
32081;BME280;18593;51.426;7.030;2023-12-04T06:49:50;100026.63;;;2.82;54.10
32081;BME280;18593;51.426;7.030;2023-12-04T06:52:17;100019.41;;;2.76;55.50
32081;BME280;18593;51.426;7.030;2023-12-04T06:54:46;100013.00;;;2.79;55.94
32081;BME280;18593;51.426;7.030;2023-12-04T06:57:14;100000.28;;;2.82;56.43
32081;BME280;18593;51.426;7.030;2023-12-04T06:59:42;100004.22;;;2.87;56.13
32081;BME280;18593;51.426;7.030;2023-12-04T07:02:10;99999.78;;;2.87;55.53
32081;BME280;18593;51.426;7.030;2023-12-04T07:04:37;99996.22;;;2.80;54.81
32081;BME280;18593;51.426;7.030;2023-12-04T07:07:06;99991.44;;;2.83;55.70
32081;BME280;18593;51.426;7.030;2023-12-04T07:09:34;99983.34;;;2.85;56.34
32081;BME280;18593;51.426;7.030;2023-12-04T07:12:06;99980.72;;;2.85;55.73
32081;BME280;18593;51.426;7.030;2023-12-04T07:14:35;99975.78;;;2.82;55.64
32081;BME280;18593;51.426;7.030;2023-12-04T07:17:04;99966.34;;;2.88;56.02
32081;BME280;18593;51.426;7.030;2023-12-04T07:19:31;99970.81;;;2.87;55.35
32081;BME280;18593;51.426;7.030;2023-12-04T07:21:59;99971.31;;;2.82;55.31
32081;BME280;18593;51.426;7.030;2023-12-04T07:24:27;99961.78;;;2.81;54.55
32081;BME280;18593;51.426;7.030;2023-12-04T07:26:54;99959.69;;;2.77;54.40
32081;BME280;18593;51.426;7.030;2023-12-04T07:29:26;99950.44;;;2.81;55.16
32081;BME280;18593;51.426;7.030;2023-12-04T07:31:54;99952.44;;;2.79;54.71
32081;BME280;18593;51.426;7.030;2023-12-04T07:34:23;99946.00;;;2.81;54.69
32081;BME280;18593;51.426;7.030;2023-12-04T07:36:51;99937.75;;;2.84;53.62
32081;BME280;18593;51.426;7.030;2023-12-04T07:39:19;99932.97;;;2.88;54.58
32081;BME280;18593;51.426;7.030;2023-12-04T07:41:46;99936.41;;;2.89;54.36
32081;BME280;18593;51.426;7.030;2023-12-04T07:44:14;99936.25;;;2.90;54.35
32081;BME280;18593;51.426;7.030;2023-12-04T07:46:43;99919.09;;;2.94;54.95
32081;BME280;18593;51.426;7.030;2023-12-04T07:49:11;99922.03;;;2.99;55.28
32081;BME280;18593;51.426;7.030;2023-12-04T07:51:38;99909.84;;;2.98;54.86
32081;BME280;18593;51.426;7.030;2023-12-04T07:54:06;99905.25;;;2.92;52.84
32081;BME280;18593;51.426;7.030;2023-12-04T07:56:37;99908.19;;;2.97;54.02
32081;BME280;18593;51.426;7.030;2023-12-04T07:59:05;99911.50;;;2.99;53.03
32081;BME280;18593;51.426;7.030;2023-12-04T08:01:32;99915.66;;;2.94;52.82
32081;BME280;18593;51.426;7.030;2023-12-04T08:04:02;99903.41;;;3.01;53.97
32081;BME280;18593;51.426;7.030;2023-12-04T08:06:30;99907.31;;;3.05;54.43
32081;BME280;18593;51.426;7.030;2023-12-04T08:08:58;99908.44;;;3.10;54.94
32081;BME280;18593;51.426;7.030;2023-12-04T08:11:26;99905.25;;;3.15;55.14
32081;BME280;18593;51.426;7.030;2023-12-04T08:13:54;99914.47;;;3.19;55.25
32081;BME280;18593;51.426;7.030;2023-12-04T08:16:21;99907.28;;;3.13;54.03
32081;BME280;18593;51.426;7.030;2023-12-04T08:18:48;99910.34;;;3.17;54.39
32081;BME280;18593;51.426;7.030;2023-12-04T08:21:17;99914.66;;;3.18;53.62
32081;BME280;18593;51.426;7.030;2023-12-04T08:23:45;99922.38;;;3.19;54.11
32081;BME280;18593;51.426;7.030;2023-12-04T08:26:13;99913.94;;;3.24;54.61
32081;BME280;18593;51.426;7.030;2023-12-04T08:28:42;99918.38;;;3.23;54.48
32081;BME280;18593;51.426;7.030;2023-12-04T08:31:10;99912.66;;;3.20;53.29
32081;BME280;18593;51.426;7.030;2023-12-04T08:33:37;99918.91;;;3.19;53.78
32081;BME280;18593;51.426;7.030;2023-12-04T08:36:08;99915.00;;;3.15;52.19
32081;BME280;18593;51.426;7.030;2023-12-04T08:38:37;99908.38;;;3.19;53.10
32081;BME280;18593;51.426;7.030;2023-12-04T08:41:06;99917.56;;;3.23;53.72
32081;BME280;18593;51.426;7.030;2023-12-04T08:43:34;99914.66;;;3.18;51.79
32081;BME280;18593;51.426;7.030;2023-12-04T08:46:02;99905.91;;;3.17;51.80
32081;BME280;18593;51.426;7.030;2023-12-04T08:48:29;99899.53;;;3.12;51.96
32081;BME280;18593;51.426;7.030;2023-12-04T08:50:58;99901.47;;;3.18;52.66
32081;BME280;18593;51.426;7.030;2023-12-04T08:53:26;99894.00;;;3.21;52.89
32081;BME280;18593;51.426;7.030;2023-12-04T08:55:55;99893.31;;;3.27;54.05
32081;BME280;18593;51.426;7.030;2023-12-04T08:58:23;99886.38;;;3.26;52.99
32081;BME280;18593;51.426;7.030;2023-12-04T09:00:50;99878.75;;;3.31;53.43
32081;BME280;18593;51.426;7.030;2023-12-04T09:03:23;99871.72;;;3.32;53.67
32081;BME280;18593;51.426;7.030;2023-12-04T09:05:51;99887.53;;;3.32;52.55
32081;BME280;18593;51.426;7.030;2023-12-04T09:08:22;99874.97;;;3.34;52.11
32081;BME280;18593;51.426;7.030;2023-12-04T09:10:54;99875.25;;;3.39;52.85
32081;BME280;18593;51.426;7.030;2023-12-04T09:13:23;99875.25;;;3.39;52.54
32081;BME280;18593;51.426;7.030;2023-12-04T09:15:50;99866.19;;;3.42;52.08
32081;BME280;18593;51.426;7.030;2023-12-04T09:18:18;99860.72;;;3.43;52.30
32081;BME280;18593;51.426;7.030;2023-12-04T09:20:45;99857.81;;;3.38;51.10
32081;BME280;18593;51.426;7.030;2023-12-04T09:23:16;99852.06;;;3.34;50.33
32081;BME280;18593;51.426;7.030;2023-12-04T09:25:45;99842.00;;;3.38;51.97
32081;BME280;18593;51.426;7.030;2023-12-04T09:28:14;99846.88;;;3.41;51.61
32081;BME280;18593;51.426;7.030;2023-12-04T09:30:43;99833.09;;;3.39;51.53
32081;BME280;18593;51.426;7.030;2023-12-04T09:33:10;99827.53;;;3.34;49.76
32081;BME280;18593;51.426;7.030;2023-12-04T09:35:38;99830.16;;;3.34;51.92
32081;BME280;18593;51.426;7.030;2023-12-04T09:38:07;99831.25;;;3.40;52.18
32081;BME280;18593;51.426;7.030;2023-12-04T09:40:34;99823.00;;;3.43;52.59
32081;BME280;18593;51.426;7.030;2023-12-04T09:43:03;99831.00;;;3.49;53.76
32081;BME280;18593;51.426;7.030;2023-12-04T09:45:39;99828.63;;;3.54;53.87
32081;BME280;18593;51.426;7.030;2023-12-04T09:48:07;99828.97;;;3.51;52.83
32081;BME280;18593;51.426;7.030;2023-12-04T09:50:36;99819.72;;;3.55;52.82
32081;BME280;18593;51.426;7.030;2023-12-04T09:53:10;99819.38;;;3.58;53.78
32081;BME280;18593;51.426;7.030;2023-12-04T09:55:38;99823.81;;;3.58;52.87
32081;BME280;18593;51.426;7.030;2023-12-04T09:58:06;99810.66;;;3.58;52.32
32081;BME280;18593;51.426;7.030;2023-12-04T10:00:35;99802.53;;;3.59;53.13
32081;BME280;18593;51.426;7.030;2023-12-04T10:03:03;99815.53;;;3.61;52.88
32081;BME280;18593;51.426;7.030;2023-12-04T10:05:31;99809.84;;;3.57;51.99
32081;BME280;18593;51.426;7.030;2023-12-04T10:07:59;99796.25;;;3.60;53.48
32081;BME280;18593;51.426;7.030;2023-12-04T10:10:27;99805.44;;;3.65;52.92
32081;BME280;18593;51.426;7.030;2023-12-04T10:12:56;99789.56;;;3.58;52.51
32081;BME280;18593;51.426;7.030;2023-12-04T10:15:26;99803.00;;;3.63;53.06
32081;BME280;18593;51.426;7.030;2023-12-04T10:17:55;99788.81;;;3.64;53.32
32081;BME280;18593;51.426;7.030;2023-12-04T10:20:24;99779.34;;;3.70;53.29
32081;BME280;18593;51.426;7.030;2023-12-04T10:22:54;99775.53;;;3.72;53.44
32081;BME280;18593;51.426;7.030;2023-12-04T10:25:23;99783.25;;;3.74;53.69
32081;BME280;18593;51.426;7.030;2023-12-04T10:27:51;99766.34;;;3.68;52.81
32081;BME280;18593;51.426;7.030;2023-12-04T10:30:26;99770.81;;;3.68;53.10
32081;BME280;18593;51.426;7.030;2023-12-04T10:33:01;99756.00;;;3.67;53.07
32081;BME280;18593;51.426;7.030;2023-12-04T10:35:32;99757.44;;;3.69;52.97
32081;BME280;18593;51.426;7.030;2023-12-04T10:38:03;99755.63;;;3.70;53.06
32081;BME280;18593;51.426;7.030;2023-12-04T10:40:33;99752.34;;;3.68;53.46
32081;BME280;18593;51.426;7.030;2023-12-04T10:43:16;99748.09;;;3.67;54.03
32081;BME280;18593;51.426;7.030;2023-12-04T10:45:46;99739.78;;;3.70;54.22
32081;BME280;18593;51.426;7.030;2023-12-04T10:48:17;99736.59;;;3.74;54.80
32081;BME280;18593;51.426;7.030;2023-12-04T10:50:47;99720.44;;;3.77;54.91
32081;BME280;18593;51.426;7.030;2023-12-04T10:53:16;99738.50;;;3.80;54.42
32081;BME280;18593;51.426;7.030;2023-12-04T10:55:45;99731.16;;;3.76;53.25
32081;BME280;18593;51.426;7.030;2023-12-04T10:58:14;99734.78;;;3.75;54.26
32081;BME280;18593;51.426;7.030;2023-12-04T11:00:45;99734.44;;;3.78;54.29
32081;BME280;18593;51.426;7.030;2023-12-04T11:03:18;99734.34;;;3.71;54.42
32081;BME280;18593;51.426;7.030;2023-12-04T11:05:55;99737.69;;;3.80;55.67
32081;BME280;18593;51.426;7.030;2023-12-04T11:08:26;99735.25;;;3.78;54.59
32081;BME280;18593;51.426;7.030;2023-12-04T11:11:02;99725.69;;;3.77;54.91
32081;BME280;18593;51.426;7.030;2023-12-04T11:13:34;99731.44;;;3.81;54.63
32081;BME280;18593;51.426;7.030;2023-12-04T11:16:07;99725.91;;;3.76;54.22
32081;BME280;18593;51.426;7.030;2023-12-04T11:18:44;99723.25;;;3.76;55.25
32081;BME280;18593;51.426;7.030;2023-12-04T11:21:16;99707.69;;;3.81;55.47
32081;BME280;18593;51.426;7.030;2023-12-04T11:23:47;99715.97;;;3.78;55.43
32081;BME280;18593;51.426;7.030;2023-12-04T11:26:16;99713.88;;;3.73;56.14
32081;BME280;18593;51.426;7.030;2023-12-04T11:28:45;99702.88;;;3.70;55.92
32081;BME280;18593;51.426;7.030;2023-12-04T11:31:14;99712.50;;;3.77;55.54
32081;BME280;18593;51.426;7.030;2023-12-04T11:33:43;99698.63;;;3.69;55.60
32081;BME280;18593;51.426;7.030;2023-12-04T11:36:14;99698.31;;;3.78;56.62
32081;BME280;18593;51.426;7.030;2023-12-04T11:38:45;99693.50;;;3.82;56.89
32081;BME280;18593;51.426;7.030;2023-12-04T11:41:17;99692.69;;;3.81;56.90
32081;BME280;18593;51.426;7.030;2023-12-04T11:43:47;99691.97;;;3.73;56.78
32081;BME280;18593;51.426;7.030;2023-12-04T11:46:20;99698.25;;;3.72;57.39
32081;BME280;18593;51.426;7.030;2023-12-04T11:48:51;99694.63;;;3.73;57.55
32081;BME280;18593;51.426;7.030;2023-12-04T11:51:49;99683.25;;;3.72;58.49
32081;BME280;18593;51.426;7.030;2023-12-04T11:54:25;99682.03;;;3.75;58.89
32081;BME280;18593;51.426;7.030;2023-12-04T11:56:59;99681.72;;;3.63;59.30
32081;BME280;18593;51.426;7.030;2023-12-04T11:59:34;99689.38;;;3.58;60.12
32081;BME280;18593;51.426;7.030;2023-12-04T12:02:08;99685.25;;;3.70;61.20
32081;BME280;18593;51.426;7.030;2023-12-04T12:04:37;99683.34;;;3.64;61.36
32081;BME280;18593;51.426;7.030;2023-12-04T12:07:06;99685.63;;;3.67;61.81
32081;BME280;18593;51.426;7.030;2023-12-04T12:09:34;99684.66;;;3.53;62.61
32081;BME280;18593;51.426;7.030;2023-12-04T12:12:03;99671.53;;;3.60;62.90
32081;BME280;18593;51.426;7.030;2023-12-04T12:14:32;99674.38;;;3.58;64.14
32081;BME280;18593;51.426;7.030;2023-12-04T12:17:00;99672.25;;;3.69;64.12
32081;BME280;18593;51.426;7.030;2023-12-04T12:19:28;99671.50;;;3.75;64.46
32081;BME280;18593;51.426;7.030;2023-12-04T12:21:57;99667.50;;;3.79;64.25
32081;BME280;18593;51.426;7.030;2023-12-04T12:24:26;99662.66;;;3.82;64.82
32081;BME280;18593;51.426;7.030;2023-12-04T12:26:54;99667.88;;;3.76;64.16
32081;BME280;18593;51.426;7.030;2023-12-04T12:29:22;99650.78;;;3.72;64.15
32081;BME280;18593;51.426;7.030;2023-12-04T12:31:50;99651.91;;;3.63;64.42
32081;BME280;18593;51.426;7.030;2023-12-04T12:34:19;99641.09;;;3.57;65.08
32081;BME280;18593;51.426;7.030;2023-12-04T12:36:47;99642.13;;;3.56;65.07
32081;BME280;18593;51.426;7.030;2023-12-04T12:39:16;99635.09;;;3.64;65.52
32081;BME280;18593;51.426;7.030;2023-12-04T12:41:47;99625.16;;;3.66;65.12
32081;BME280;18593;51.426;7.030;2023-12-04T12:44:16;99622.16;;;3.69;64.75
32081;BME280;18593;51.426;7.030;2023-12-04T12:46:50;99624.22;;;3.73;65.08
32081;BME280;18593;51.426;7.030;2023-12-04T12:49:19;99619.97;;;3.72;64.97
32081;BME280;18593;51.426;7.030;2023-12-04T12:51:47;99613.88;;;3.72;64.60
32081;BME280;18593;51.426;7.030;2023-12-04T12:54:17;99611.34;;;3.64;64.68
32081;BME280;18593;51.426;7.030;2023-12-04T12:56:50;99608.09;;;3.61;65.02
32081;BME280;18593;51.426;7.030;2023-12-04T12:59:18;99607.16;;;3.69;65.19
32081;BME280;18593;51.426;7.030;2023-12-04T13:01:48;99612.41;;;3.69;65.33
32081;BME280;18593;51.426;7.030;2023-12-04T13:04:16;99592.59;;;3.73;65.43
32081;BME280;18593;51.426;7.030;2023-12-04T13:06:45;99599.50;;;3.74;65.71
32081;BME280;18593;51.426;7.030;2023-12-04T13:09:13;99593.41;;;3.74;65.15
32081;BME280;18593;51.426;7.030;2023-12-04T13:11:46;99580.22;;;3.74;65.25
32081;BME280;18593;51.426;7.030;2023-12-04T13:14:14;99574.69;;;3.69;65.74